sensor_id;sensor_type;location;lat;lon;timestamp;temperature;humidity
29725;DHT22;16636;48.394;15.468;2023-04-24T00:00:09;11.70;99.90
29725;DHT22;16636;48.394;15.468;2023-04-24T00:02:36;11.70;99.90
29725;DHT22;16636;48.394;15.468;2023-04-24T00:05:05;11.70;99.90
29725;DHT22;16636;48.394;15.468;2023-04-24T00:07:31;11.70;99.90
29725;DHT22;16636;48.394;15.468;2023-04-24T00:09:57;11.70;99.90
29725;DHT22;16636;48.394;15.468;2023-04-24T00:12:24;11.70;99.90
29725;DHT22;16636;48.394;15.468;2023-04-24T00:14:50;11.70;99.90
29725;DHT22;16636;48.394;15.468;2023-04-24T00:17:16;11.70;99.90
29725;DHT22;16636;48.394;15.468;2023-04-24T00:19:45;11.70;99.90
29725;DHT22;16636;48.394;15.468;2023-04-24T00:22:11;11.60;99.90
29725;DHT22;16636;48.394;15.468;2023-04-24T00:24:39;11.50;99.90
29725;DHT22;16636;48.394;15.468;2023-04-24T00:27:05;11.50;99.90
29725;DHT22;16636;48.394;15.468;2023-04-24T00:29:30;11.40;99.90
29725;DHT22;16636;48.394;15.468;2023-04-24T00:31:56;11.40;99.90
29725;DHT22;16636;48.394;15.468;2023-04-24T00:34:22;11.40;99.90
29725;DHT22;16636;48.394;15.468;2023-04-24T00:36:48;11.20;99.90
29725;DHT22;16636;48.394;15.468;2023-04-24T00:39:21;11.20;99.90
29725;DHT22;16636;48.394;15.468;2023-04-24T00:41:47;11.10;99.90
29725;DHT22;16636;48.394;15.468;2023-04-24T00:44:14;11.00;99.90
29725;DHT22;16636;48.394;15.468;2023-04-24T00:46:40;11.00;99.90
29725;DHT22;16636;48.394;15.468;2023-04-24T00:49:06;10.90;99.90
29725;DHT22;16636;48.394;15.468;2023-04-24T00:51:32;10.90;99.90
29725;DHT22;16636;48.394;15.468;2023-04-24T00:53:59;10.80;99.90
29725;DHT22;16636;48.394;15.468;2023-04-24T00:56:26;10.90;99.90
29725;DHT22;16636;48.394;15.468;2023-04-24T00:58:52;10.90;99.90
29725;DHT22;16636;48.394;15.468;2023-04-24T01:01:21;10.90;99.90
29725;DHT22;16636;48.394;15.468;2023-04-24T01:03:49;10.90;99.90
29725;DHT22;16636;48.394;15.468;2023-04-24T01:06:16;10.90;99.90
29725;DHT22;16636;48.394;15.468;2023-04-24T01:08:42;10.90;99.90
29725;DHT22;16636;48.394;15.468;2023-04-24T01:11:09;10.90;99.90
29725;DHT22;16636;48.394;15.468;2023-04-24T01:13:35;10.90;99.90
29725;DHT22;16636;48.394;15.468;2023-04-24T01:16:02;10.90;99.90
29725;DHT22;16636;48.394;15.468;2023-04-24T01:18:28;10.90;99.90
29725;DHT22;16636;48.394;15.468;2023-04-24T01:20:56;10.90;99.90
29725;DHT22;16636;48.394;15.468;2023-04-24T01:23:23;10.90;99.90
29725;DHT22;16636;48.394;15.468;2023-04-24T01:25:50;10.90;99.90
29725;DHT22;16636;48.394;15.468;2023-04-24T01:28:17;10.80;99.90
29725;DHT22;16636;48.394;15.468;2023-04-24T01:30:43;10.90;99.90
29725;DHT22;16636;48.394;15.468;2023-04-24T01:33:10;10.80;99.90
29725;DHT22;16636;48.394;15.468;2023-04-24T01:35:36;10.80;99.90
29725;DHT22;16636;48.394;15.468;2023-04-24T01:38:03;10.90;99.90
29725;DHT22;16636;48.394;15.468;2023-04-24T01:40:29;10.90;99.90
29725;DHT22;16636;48.394;15.468;2023-04-24T01:42:57;10.90;99.90
29725;DHT22;16636;48.394;15.468;2023-04-24T01:45:23;10.90;99.90
29725;DHT22;16636;48.394;15.468;2023-04-24T01:47:49;10.80;99.90
29725;DHT22;16636;48.394;15.468;2023-04-24T01:50:16;10.80;99.90
29725;DHT22;16636;48.394;15.468;2023-04-24T01:52:42;10.80;99.90
29725;DHT22;16636;48.394;15.468;2023-04-24T01:55:09;10.70;99.90
29725;DHT22;16636;48.394;15.468;2023-04-24T01:57:35;10.70;99.90
29725;DHT22;16636;48.394;15.468;2023-04-24T02:00:02;10.70;99.90
29725;DHT22;16636;48.394;15.468;2023-04-24T02:02:41;10.70;99.90
29725;DHT22;16636;48.394;15.468;2023-04-24T02:05:08;10.70;99.90
29725;DHT22;16636;48.394;15.468;2023-04-24T02:07:35;10.60;99.90
29725;DHT22;16636;48.394;15.468;2023-04-24T02:10:02;10.70;99.90
29725;DHT22;16636;48.394;15.468;2023-04-24T02:12:29;10.60;99.90
29725;DHT22;16636;48.394;15.468;2023-04-24T02:14:55;10.70;99.90
29725;DHT22;16636;48.394;15.468;2023-04-24T02:17:21;10.70;99.90
29725;DHT22;16636;48.394;15.468;2023-04-24T02:19:48;10.70;99.90
29725;DHT22;16636;48.394;15.468;2023-04-24T02:22:14;10.80;99.90
29725;DHT22;16636;48.394;15.468;2023-04-24T02:24:40;10.80;99.90
29725;DHT22;16636;48.394;15.468;2023-04-24T02:27:06;10.80;99.90
29725;DHT22;16636;48.394;15.468;2023-04-24T02:29:32;10.80;99.90
29725;DHT22;16636;48.394;15.468;2023-04-24T02:31:58;10.80;99.90
29725;DHT22;16636;48.394;15.468;2023-04-24T02:34:24;10.80;99.90
29725;DHT22;16636;48.394;15.468;2023-04-24T02:36:50;10.80;99.90
29725;DHT22;16636;48.394;15.468;2023-04-24T02:39:16;10.80;99.90
29725;DHT22;16636;48.394;15.468;2023-04-24T02:41:42;10.80;99.90
29725;DHT22;16636;48.394;15.468;2023-04-24T02:44:08;10.70;99.90
29725;DHT22;16636;48.394;15.468;2023-04-24T02:46:34;10.70;99.90
29725;DHT22;16636;48.394;15.468;2023-04-24T02:49:00;10.70;99.90
29725;DHT22;16636;48.394;15.468;2023-04-24T02:51:26;10.60;99.90
29725;DHT22;16636;48.394;15.468;2023-04-24T02:53:52;10.60;99.90
29725;DHT22;16636;48.394;15.468;2023-04-24T02:56:19;10.60;99.90
29725;DHT22;16636;48.394;15.468;2023-04-24T02:58:45;10.60;99.90
29725;DHT22;16636;48.394;15.468;2023-04-24T03:01:11;10.60;99.90
29725;DHT22;16636;48.394;15.468;2023-04-24T03:03:37;10.50;99.90
29725;DHT22;16636;48.394;15.468;2023-04-24T03:06:03;10.50;99.90
29725;DHT22;16636;48.394;15.468;2023-04-24T03:08:31;10.50;99.90
29725;DHT22;16636;48.394;15.468;2023-04-24T03:10:57;10.50;99.90
29725;DHT22;16636;48.394;15.468;2023-04-24T03:13:23;10.50;99.90
29725;DHT22;16636;48.394;15.468;2023-04-24T03:15:49;10.40;99.90
29725;DHT22;16636;48.394;15.468;2023-04-24T03:18:15;10.40;99.90
29725;DHT22;16636;48.394;15.468;2023-04-24T03:20:42;10.50;99.90
29725;DHT22;16636;48.394;15.468;2023-04-24T03:23:08;10.40;99.90
29725;DHT22;16636;48.394;15.468;2023-04-24T03:25:35;10.50;99.90
29725;DHT22;16636;48.394;15.468;2023-04-24T03:28:02;10.40;99.90
29725;DHT22;16636;48.394;15.468;2023-04-24T03:30:39;10.40;99.90
29725;DHT22;16636;48.394;15.468;2023-04-24T03:33:05;10.40;99.90
29725;DHT22;16636;48.394;15.468;2023-04-24T03:35:35;10.40;99.90
29725;DHT22;16636;48.394;15.468;2023-04-24T03:38:06;10.50;99.90
29725;DHT22;16636;48.394;15.468;2023-04-24T03:40:57;10.40;99.90
29725;DHT22;16636;48.394;15.468;2023-04-24T03:43:34;10.40;99.90
29725;DHT22;16636;48.394;15.468;2023-04-24T03:46:01;10.40;99.90
29725;DHT22;16636;48.394;15.468;2023-04-24T03:48:29;10.30;99.90
29725;DHT22;16636;48.394;15.468;2023-04-24T03:50:55;10.30;99.90
29725;DHT22;16636;48.394;15.468;2023-04-24T03:53:21;10.30;99.90
29725;DHT22;16636;48.394;15.468;2023-04-24T03:55:48;10.30;99.90
29725;DHT22;16636;48.394;15.468;2023-04-24T03:58:15;10.30;99.90
29725;DHT22;16636;48.394;15.468;2023-04-24T04:00:40;10.30;99.90
29725;DHT22;16636;48.394;15.468;2023-04-24T04:03:40;10.30;99.90
29725;DHT22;16636;48.394;15.468;2023-04-24T04:06:06;10.40;99.90
29725;DHT22;16636;48.394;15.468;2023-04-24T04:08:32;10.40;99.90
29725;DHT22;16636;48.394;15.468;2023-04-24T04:10:58;10.40;99.90
29725;DHT22;16636;48.394;15.468;2023-04-24T04:13:24;10.40;99.90
29725;DHT22;16636;48.394;15.468;2023-04-24T04:15:50;10.40;99.90
29725;DHT22;16636;48.394;15.468;2023-04-24T04:18:16;10.50;99.90
29725;DHT22;16636;48.394;15.468;2023-04-24T04:20:42;10.50;99.90
29725;DHT22;16636;48.394;15.468;2023-04-24T04:23:09;10.50;99.90
29725;DHT22;16636;48.394;15.468;2023-04-24T04:25:54;10.50;99.90
29725;DHT22;16636;48.394;15.468;2023-04-24T04:28:24;10.60;99.90
29725;DHT22;16636;48.394;15.468;2023-04-24T04:30:50;10.60;99.90
29725;DHT22;16636;48.394;15.468;2023-04-24T04:33:20;10.60;99.90
29725;DHT22;16636;48.394;15.468;2023-04-24T04:35:46;10.60;99.90
29725;DHT22;16636;48.394;15.468;2023-04-24T04:38:18;10.70;99.90
29725;DHT22;16636;48.394;15.468;2023-04-24T04:41:10;10.70;99.90
29725;DHT22;16636;48.394;15.468;2023-04-24T04:43:36;10.70;99.90
29725;DHT22;16636;48.394;15.468;2023-04-24T04:46:03;10.70;99.90
29725;DHT22;16636;48.394;15.468;2023-04-24T04:48:43;10.70;99.90
29725;DHT22;16636;48.394;15.468;2023-04-24T04:51:09;10.70;99.90
29725;DHT22;16636;48.394;15.468;2023-04-24T04:53:35;10.70;99.90
29725;DHT22;16636;48.394;15.468;2023-04-24T04:56:01;10.80;99.90
29725;DHT22;16636;48.394;15.468;2023-04-24T04:58:38;10.80;99.90
29725;DHT22;16636;48.394;15.468;2023-04-24T05:01:07;10.80;99.90
29725;DHT22;16636;48.394;15.468;2023-04-24T05:03:39;10.80;99.90
29725;DHT22;16636;48.394;15.468;2023-04-24T05:06:08;10.90;99.90
29725;DHT22;16636;48.394;15.468;2023-04-24T05:08:37;10.90;99.90
29725;DHT22;16636;48.394;15.468;2023-04-24T05:11:05;10.90;99.90
29725;DHT22;16636;48.394;15.468;2023-04-24T05:13:32;10.90;99.90
29725;DHT22;16636;48.394;15.468;2023-04-24T05:15:59;11.00;99.90
29725;DHT22;16636;48.394;15.468;2023-04-24T05:18:26;11.00;99.90
29725;DHT22;16636;48.394;15.468;2023-04-24T05:20:52;11.00;99.90
29725;DHT22;16636;48.394;15.468;2023-04-24T05:23:18;11.00;99.90
29725;DHT22;16636;48.394;15.468;2023-04-24T05:25:48;11.00;99.90
29725;DHT22;16636;48.394;15.468;2023-04-24T05:28:14;11.00;99.90
29725;DHT22;16636;48.394;15.468;2023-04-24T05:30:42;11.00;99.90
29725;DHT22;16636;48.394;15.468;2023-04-24T05:33:09;11.00;99.90
29725;DHT22;16636;48.394;15.468;2023-04-24T05:35:35;11.00;99.90
29725;DHT22;16636;48.394;15.468;2023-04-24T05:38:02;11.10;99.90
29725;DHT22;16636;48.394;15.468;2023-04-24T05:40:28;11.10;99.90
29725;DHT22;16636;48.394;15.468;2023-04-24T05:42:54;11.10;99.90
29725;DHT22;16636;48.394;15.468;2023-04-24T05:45:22;11.10;99.90
29725;DHT22;16636;48.394;15.468;2023-04-24T05:47:48;11.20;99.90
29725;DHT22;16636;48.394;15.468;2023-04-24T05:50:14;11.20;99.90
29725;DHT22;16636;48.394;15.468;2023-04-24T05:52:40;11.20;99.90
29725;DHT22;16636;48.394;15.468;2023-04-24T05:55:18;11.20;99.90
29725;DHT22;16636;48.394;15.468;2023-04-24T05:57:44;11.20;99.90
29725;DHT22;16636;48.394;15.468;2023-04-24T06:00:11;11.20;99.90
29725;DHT22;16636;48.394;15.468;2023-04-24T06:02:45;11.30;99.90
29725;DHT22;16636;48.394;15.468;2023-04-24T06:05:13;11.30;99.90
29725;DHT22;16636;48.394;15.468;2023-04-24T06:07:38;11.30;99.90
29725;DHT22;16636;48.394;15.468;2023-04-24T06:10:07;11.30;99.90
29725;DHT22;16636;48.394;15.468;2023-04-24T06:12:39;11.30;99.90
29725;DHT22;16636;48.394;15.468;2023-04-24T06:15:11;11.30;99.90
29725;DHT22;16636;48.394;15.468;2023-04-24T06:17:57;11.30;99.90
29725;DHT22;16636;48.394;15.468;2023-04-24T06:20:23;11.40;99.90
29725;DHT22;16636;48.394;15.468;2023-04-24T06:22:49;11.40;99.90
29725;DHT22;16636;48.394;15.468;2023-04-24T06:25:15;11.40;99.90
29725;DHT22;16636;48.394;15.468;2023-04-24T06:27:42;11.40;99.90
29725;DHT22;16636;48.394;15.468;2023-04-24T06:30:08;11.40;99.90
29725;DHT22;16636;48.394;15.468;2023-04-24T06:32:34;11.40;99.90
29725;DHT22;16636;48.394;15.468;2023-04-24T06:35:00;11.40;99.90
29725;DHT22;16636;48.394;15.468;2023-04-24T06:37:26;11.40;99.90
29725;DHT22;16636;48.394;15.468;2023-04-24T06:39:52;11.50;99.90
29725;DHT22;16636;48.394;15.468;2023-04-24T06:42:18;11.40;99.90
29725;DHT22;16636;48.394;15.468;2023-04-24T06:44:48;11.50;99.90
29725;DHT22;16636;48.394;15.468;2023-04-24T06:47:14;11.50;99.90
29725;DHT22;16636;48.394;15.468;2023-04-24T06:49:41;11.50;99.90
29725;DHT22;16636;48.394;15.468;2023-04-24T06:52:07;11.60;99.90
29725;DHT22;16636;48.394;15.468;2023-04-24T06:54:33;11.60;99.90
29725;DHT22;16636;48.394;15.468;2023-04-24T06:56:59;11.60;99.90
29725;DHT22;16636;48.394;15.468;2023-04-24T06:59:29;11.60;99.90
29725;DHT22;16636;48.394;15.468;2023-04-24T07:01:56;11.60;99.90
29725;DHT22;16636;48.394;15.468;2023-04-24T07:04:22;11.70;99.90
29725;DHT22;16636;48.394;15.468;2023-04-24T07:06:48;11.70;99.90
29725;DHT22;16636;48.394;15.468;2023-04-24T07:09:18;11.70;99.90
29725;DHT22;16636;48.394;15.468;2023-04-24T07:11:45;11.70;99.90
29725;DHT22;16636;48.394;15.468;2023-04-24T07:14:11;11.70;99.90
29725;DHT22;16636;48.394;15.468;2023-04-24T07:16:38;11.70;99.90
29725;DHT22;16636;48.394;15.468;2023-04-24T07:19:04;11.70;99.90
29725;DHT22;16636;48.394;15.468;2023-04-24T07:21:30;11.70;99.90
29725;DHT22;16636;48.394;15.468;2023-04-24T07:23:57;11.70;99.90
29725;DHT22;16636;48.394;15.468;2023-04-24T07:26:23;11.80;99.90
29725;DHT22;16636;48.394;15.468;2023-04-24T07:28:49;11.80;99.90
29725;DHT22;16636;48.394;15.468;2023-04-24T07:31:16;11.80;99.90
29725;DHT22;16636;48.394;15.468;2023-04-24T07:33:42;11.90;99.90
29725;DHT22;16636;48.394;15.468;2023-04-24T07:36:08;11.90;99.90
29725;DHT22;16636;48.394;15.468;2023-04-24T07:38:41;11.90;99.90
29725;DHT22;16636;48.394;15.468;2023-04-24T07:41:07;11.90;99.90
29725;DHT22;16636;48.394;15.468;2023-04-24T07:43:33;12.00;99.90
29725;DHT22;16636;48.394;15.468;2023-04-24T07:45:59;12.00;99.90
29725;DHT22;16636;48.394;15.468;2023-04-24T07:48:25;12.10;99.90
29725;DHT22;16636;48.394;15.468;2023-04-24T07:50:52;12.10;99.90
29725;DHT22;16636;48.394;15.468;2023-04-24T07:53:18;12.10;99.90
29725;DHT22;16636;48.394;15.468;2023-04-24T07:55:44;12.20;99.90
29725;DHT22;16636;48.394;15.468;2023-04-24T07:58:10;12.20;99.90
29725;DHT22;16636;48.394;15.468;2023-04-24T08:00:36;12.20;99.90
29725;DHT22;16636;48.394;15.468;2023-04-24T08:03:02;12.30;99.90
29725;DHT22;16636;48.394;15.468;2023-04-24T08:05:28;12.30;99.90
29725;DHT22;16636;48.394;15.468;2023-04-24T08:07:54;12.30;99.90
29725;DHT22;16636;48.394;15.468;2023-04-24T08:10:21;12.30;99.90
29725;DHT22;16636;48.394;15.468;2023-04-24T08:12:47;12.40;99.90
29725;DHT22;16636;48.394;15.468;2023-04-24T08:15:13;12.40;99.90
29725;DHT22;16636;48.394;15.468;2023-04-24T08:17:39;12.40;99.90
29725;DHT22;16636;48.394;15.468;2023-04-24T08:20:06;12.40;99.90
29725;DHT22;16636;48.394;15.468;2023-04-24T08:22:36;12.50;99.90
29725;DHT22;16636;48.394;15.468;2023-04-24T08:25:01;12.50;99.90
29725;DHT22;16636;48.394;15.468;2023-04-24T08:27:27;12.50;99.90
29725;DHT22;16636;48.394;15.468;2023-04-24T08:29:54;12.60;99.90
29725;DHT22;16636;48.394;15.468;2023-04-24T08:32:20;12.60;99.90
29725;DHT22;16636;48.394;15.468;2023-04-24T08:34:46;12.60;99.90
29725;DHT22;16636;48.394;15.468;2023-04-24T08:37:11;12.60;99.90
29725;DHT22;16636;48.394;15.468;2023-04-24T08:39:37;12.60;99.90
29725;DHT22;16636;48.394;15.468;2023-04-24T08:42:04;12.60;99.90
29725;DHT22;16636;48.394;15.468;2023-04-24T08:44:33;12.60;99.90
29725;DHT22;16636;48.394;15.468;2023-04-24T08:47:00;12.60;99.90
29725;DHT22;16636;48.394;15.468;2023-04-24T08:49:28;12.50;99.90
29725;DHT22;16636;48.394;15.468;2023-04-24T08:51:54;12.50;99.90
29725;DHT22;16636;48.394;15.468;2023-04-24T08:54:20;12.50;99.90
29725;DHT22;16636;48.394;15.468;2023-04-24T08:56:47;12.50;99.90
29725;DHT22;16636;48.394;15.468;2023-04-24T08:59:13;12.50;99.90
29725;DHT22;16636;48.394;15.468;2023-04-24T09:01:39;12.50;99.90
29725;DHT22;16636;48.394;15.468;2023-04-24T09:04:06;12.50;99.90
29725;DHT22;16636;48.394;15.468;2023-04-24T09:06:32;12.50;99.90
29725;DHT22;16636;48.394;15.468;2023-04-24T09:09:00;12.50;99.90
29725;DHT22;16636;48.394;15.468;2023-04-24T09:11:26;12.50;99.90
29725;DHT22;16636;48.394;15.468;2023-04-24T09:13:55;12.50;99.90
29725;DHT22;16636;48.394;15.468;2023-04-24T09:16:21;12.50;99.90
29725;DHT22;16636;48.394;15.468;2023-04-24T09:18:49;12.50;99.90
29725;DHT22;16636;48.394;15.468;2023-04-24T09:21:15;12.50;99.90
29725;DHT22;16636;48.394;15.468;2023-04-24T09:23:41;12.50;99.90
29725;DHT22;16636;48.394;15.468;2023-04-24T09:26:08;12.50;99.90
29725;DHT22;16636;48.394;15.468;2023-04-24T09:28:36;12.50;99.90
29725;DHT22;16636;48.394;15.468;2023-04-24T09:31:12;12.60;99.90
29725;DHT22;16636;48.394;15.468;2023-04-24T09:33:40;12.60;99.90
29725;DHT22;16636;48.394;15.468;2023-04-24T09:36:06;12.60;99.90
29725;DHT22;16636;48.394;15.468;2023-04-24T09:38:32;12.60;99.90
29725;DHT22;16636;48.394;15.468;2023-04-24T09:40:59;12.60;99.90
29725;DHT22;16636;48.394;15.468;2023-04-24T09:43:26;12.50;99.90
29725;DHT22;16636;48.394;15.468;2023-04-24T09:45:55;12.50;99.90
29725;DHT22;16636;48.394;15.468;2023-04-24T09:48:29;12.40;99.90
29725;DHT22;16636;48.394;15.468;2023-04-24T09:50:55;12.40;99.90
29725;DHT22;16636;48.394;15.468;2023-04-24T09:53:24;12.40;99.90
29725;DHT22;16636;48.394;15.468;2023-04-24T09:55:51;12.40;99.90
29725;DHT22;16636;48.394;15.468;2023-04-24T09:58:21;12.40;99.90
29725;DHT22;16636;48.394;15.468;2023-04-24T10:00:50;12.40;99.90
29725;DHT22;16636;48.394;15.468;2023-04-24T10:03:18;12.40;99.90
29725;DHT22;16636;48.394;15.468;2023-04-24T10:05:44;12.50;99.90
29725;DHT22;16636;48.394;15.468;2023-04-24T10:08:11;12.50;99.90
29725;DHT22;16636;48.394;15.468;2023-04-24T10:10:41;12.60;99.90
29725;DHT22;16636;48.394;15.468;2023-04-24T10:13:11;12.60;99.90
29725;DHT22;16636;48.394;15.468;2023-04-24T10:15:37;12.60;99.90
29725;DHT22;16636;48.394;15.468;2023-04-24T10:18:07;12.70;99.90
29725;DHT22;16636;48.394;15.468;2023-04-24T10:20:35;12.70;99.90
29725;DHT22;16636;48.394;15.468;2023-04-24T10:23:01;12.70;99.90
29725;DHT22;16636;48.394;15.468;2023-04-24T10:25:28;12.70;99.90
29725;DHT22;16636;48.394;15.468;2023-04-24T10:27:54;12.80;99.90
29725;DHT22;16636;48.394;15.468;2023-04-24T10:30:28;12.90;99.90
29725;DHT22;16636;48.394;15.468;2023-04-24T10:32:54;13.00;99.90
29725;DHT22;16636;48.394;15.468;2023-04-24T10:35:21;13.00;99.90
29725;DHT22;16636;48.394;15.468;2023-04-24T10:38:01;13.10;99.90
29725;DHT22;16636;48.394;15.468;2023-04-24T10:40:34;13.20;99.90
29725;DHT22;16636;48.394;15.468;2023-04-24T10:43:06;13.20;99.90
29725;DHT22;16636;48.394;15.468;2023-04-24T10:45:35;13.20;99.90
29725;DHT22;16636;48.394;15.468;2023-04-24T10:48:01;13.40;99.90
29725;DHT22;16636;48.394;15.468;2023-04-24T10:50:28;13.50;99.90
29725;DHT22;16636;48.394;15.468;2023-04-24T10:53:04;13.60;99.90
29725;DHT22;16636;48.394;15.468;2023-04-24T10:55:46;13.70;99.90
29725;DHT22;16636;48.394;15.468;2023-04-24T10:58:13;13.80;99.90
29725;DHT22;16636;48.394;15.468;2023-04-24T11:00:41;13.90;99.90
29725;DHT22;16636;48.394;15.468;2023-04-24T11:03:12;14.00;99.90
29725;DHT22;16636;48.394;15.468;2023-04-24T11:05:51;14.10;99.90
29725;DHT22;16636;48.394;15.468;2023-04-24T11:13:24;14.10;99.90
29725;DHT22;16636;48.394;15.468;2023-04-24T11:18:38;14.10;99.90
29725;DHT22;16636;48.394;15.468;2023-04-24T11:21:12;14.10;99.90
29725;DHT22;16636;48.394;15.468;2023-04-24T11:23:39;14.10;99.90
29725;DHT22;16636;48.394;15.468;2023-04-24T11:26:11;14.10;99.90
29725;DHT22;16636;48.394;15.468;2023-04-24T11:28:44;14.10;99.90
29725;DHT22;16636;48.394;15.468;2023-04-24T11:33:54;14.10;99.90
29725;DHT22;16636;48.394;15.468;2023-04-24T11:36:20;14.10;99.90
29725;DHT22;16636;48.394;15.468;2023-04-24T11:38:46;14.10;99.90
29725;DHT22;16636;48.394;15.468;2023-04-24T11:41:12;14.10;99.90
29725;DHT22;16636;48.394;15.468;2023-04-24T11:43:38;14.10;99.90
29725;DHT22;16636;48.394;15.468;2023-04-24T11:46:05;14.10;99.90
29725;DHT22;16636;48.394;15.468;2023-04-24T11:48:34;14.10;99.90
29725;DHT22;16636;48.394;15.468;2023-04-24T11:51:01;14.10;99.90
29725;DHT22;16636;48.394;15.468;2023-04-24T11:53:28;14.20;99.90
29725;DHT22;16636;48.394;15.468;2023-04-24T11:55:53;14.20;99.90
29725;DHT22;16636;48.394;15.468;2023-04-24T11:58:22;14.30;99.90
29725;DHT22;16636;48.394;15.468;2023-04-24T12:00:55;14.40;99.90
29725;DHT22;16636;48.394;15.468;2023-04-24T12:03:21;14.50;99.90
29725;DHT22;16636;48.394;15.468;2023-04-24T12:05:47;14.60;99.90
29725;DHT22;16636;48.394;15.468;2023-04-24T12:08:26;14.60;99.90
29725;DHT22;16636;48.394;15.468;2023-04-24T12:10:52;14.70;99.90
29725;DHT22;16636;48.394;15.468;2023-04-24T12:13:18;14.70;99.90
29725;DHT22;16636;48.394;15.468;2023-04-24T12:15:44;14.80;99.90
29725;DHT22;16636;48.394;15.468;2023-04-24T12:18:11;14.80;99.90
29725;DHT22;16636;48.394;15.468;2023-04-24T12:20:38;14.80;99.90
29725;DHT22;16636;48.394;15.468;2023-04-24T12:23:03;14.80;99.90
29725;DHT22;16636;48.394;15.468;2023-04-24T12:25:30;14.80;99.90
29725;DHT22;16636;48.394;15.468;2023-04-24T12:30:29;14.70;99.90
29725;DHT22;16636;48.394;15.468;2023-04-24T12:32:57;14.70;99.90
29725;DHT22;16636;48.394;15.468;2023-04-24T12:35:23;14.60;99.90
29725;DHT22;16636;48.394;15.468;2023-04-24T12:37:49;14.60;99.90
29725;DHT22;16636;48.394;15.468;2023-04-24T12:40:16;14.60;99.90
29725;DHT22;16636;48.394;15.468;2023-04-24T12:42:46;14.60;99.90
29725;DHT22;16636;48.394;15.468;2023-04-24T12:45:12;14.60;99.90
29725;DHT22;16636;48.394;15.468;2023-04-24T12:47:38;14.70;99.90
29725;DHT22;16636;48.394;15.468;2023-04-24T12:50:05;14.80;99.90
29725;DHT22;16636;48.394;15.468;2023-04-24T12:52:31;14.80;99.90
29725;DHT22;16636;48.394;15.468;2023-04-24T12:54:57;14.80;99.90
29725;DHT22;16636;48.394;15.468;2023-04-24T12:57:24;14.80;99.90
29725;DHT22;16636;48.394;15.468;2023-04-24T12:59:50;14.90;99.90
29725;DHT22;16636;48.394;15.468;2023-04-24T13:02:16;14.90;99.90
29725;DHT22;16636;48.394;15.468;2023-04-24T13:04:45;14.80;99.90
29725;DHT22;16636;48.394;15.468;2023-04-24T13:07:12;14.80;99.90
29725;DHT22;16636;48.394;15.468;2023-04-24T13:09:38;14.80;99.90
29725;DHT22;16636;48.394;15.468;2023-04-24T13:12:04;14.80;99.90
29725;DHT22;16636;48.394;15.468;2023-04-24T13:14:31;14.80;99.90
29725;DHT22;16636;48.394;15.468;2023-04-24T13:16:57;14.80;99.90
29725;DHT22;16636;48.394;15.468;2023-04-24T13:19:26;14.90;99.90
29725;DHT22;16636;48.394;15.468;2023-04-24T13:21:53;14.80;99.90
29725;DHT22;16636;48.394;15.468;2023-04-24T13:24:19;14.80;99.90
29725;DHT22;16636;48.394;15.468;2023-04-24T13:26:45;14.80;99.90
29725;DHT22;16636;48.394;15.468;2023-04-24T13:29:11;14.80;99.90
29725;DHT22;16636;48.394;15.468;2023-04-24T13:31:37;14.80;99.90
29725;DHT22;16636;48.394;15.468;2023-04-24T13:34:03;14.90;99.90
29725;DHT22;16636;48.394;15.468;2023-04-24T13:36:29;14.90;99.90
29725;DHT22;16636;48.394;15.468;2023-04-24T13:38:55;14.90;99.90
29725;DHT22;16636;48.394;15.468;2023-04-24T13:41:21;15.00;99.90
29725;DHT22;16636;48.394;15.468;2023-04-24T13:43:47;15.10;99.90
29725;DHT22;16636;48.394;15.468;2023-04-24T13:46:13;15.40;99.90
29725;DHT22;16636;48.394;15.468;2023-04-24T13:48:39;15.50;99.90
29725;DHT22;16636;48.394;15.468;2023-04-24T13:51:05;15.50;99.90
29725;DHT22;16636;48.394;15.468;2023-04-24T13:53:31;15.40;99.90
29725;DHT22;16636;48.394;15.468;2023-04-24T13:55:58;15.30;99.90
29725;DHT22;16636;48.394;15.468;2023-04-24T13:58:24;15.30;99.90
29725;DHT22;16636;48.394;15.468;2023-04-24T14:00:50;15.40;99.90
29725;DHT22;16636;48.394;15.468;2023-04-24T14:03:16;15.30;99.90
29725;DHT22;16636;48.394;15.468;2023-04-24T14:05:42;15.40;99.90
29725;DHT22;16636;48.394;15.468;2023-04-24T14:08:08;15.30;99.90
29725;DHT22;16636;48.394;15.468;2023-04-24T14:10:34;15.20;99.90
29725;DHT22;16636;48.394;15.468;2023-04-24T14:13:00;15.10;99.90
29725;DHT22;16636;48.394;15.468;2023-04-24T14:15:25;15.00;99.90
29725;DHT22;16636;48.394;15.468;2023-04-24T14:17:51;14.90;99.90
29725;DHT22;16636;48.394;15.468;2023-04-24T14:20:17;14.40;99.90
29725;DHT22;16636;48.394;15.468;2023-04-24T14:22:43;14.00;99.90
29725;DHT22;16636;48.394;15.468;2023-04-24T14:25:09;13.70;99.90
29725;DHT22;16636;48.394;15.468;2023-04-24T14:27:35;13.60;99.90
29725;DHT22;16636;48.394;15.468;2023-04-24T14:30:01;13.60;99.90
29725;DHT22;16636;48.394;15.468;2023-04-24T14:32:27;13.50;99.90
29725;DHT22;16636;48.394;15.468;2023-04-24T14:34:53;13.50;99.90
29725;DHT22;16636;48.394;15.468;2023-04-24T14:37:19;13.50;99.90
29725;DHT22;16636;48.394;15.468;2023-04-24T14:39:45;13.40;99.90
29725;DHT22;16636;48.394;15.468;2023-04-24T14:42:11;13.40;99.90
29725;DHT22;16636;48.394;15.468;2023-04-24T14:44:37;13.40;99.90
29725;DHT22;16636;48.394;15.468;2023-04-24T14:47:02;13.30;99.90
29725;DHT22;16636;48.394;15.468;2023-04-24T14:49:28;13.20;99.90
29725;DHT22;16636;48.394;15.468;2023-04-24T14:51:54;13.20;99.90
29725;DHT22;16636;48.394;15.468;2023-04-24T14:54:21;13.20;99.90
29725;DHT22;16636;48.394;15.468;2023-04-24T14:56:49;13.20;99.90
29725;DHT22;16636;48.394;15.468;2023-04-24T14:59:15;13.30;99.90
29725;DHT22;16636;48.394;15.468;2023-04-24T15:01:40;13.30;99.90
29725;DHT22;16636;48.394;15.468;2023-04-24T15:04:06;13.30;99.90
29725;DHT22;16636;48.394;15.468;2023-04-24T15:06:32;13.40;99.90
29725;DHT22;16636;48.394;15.468;2023-04-24T15:08:58;13.40;99.90
29725;DHT22;16636;48.394;15.468;2023-04-24T15:11:24;13.50;99.90
29725;DHT22;16636;48.394;15.468;2023-04-24T15:13:50;13.50;99.90
29725;DHT22;16636;48.394;15.468;2023-04-24T15:16:15;13.50;99.90
29725;DHT22;16636;48.394;15.468;2023-04-24T15:18:41;13.60;99.90
29725;DHT22;16636;48.394;15.468;2023-04-24T15:21:07;13.40;99.90
29725;DHT22;16636;48.394;15.468;2023-04-24T15:23:33;13.40;99.90
29725;DHT22;16636;48.394;15.468;2023-04-24T15:25:59;13.30;99.90
29725;DHT22;16636;48.394;15.468;2023-04-24T15:28:26;13.30;99.90